Springfield, Idaho
Current Conditions -  °F | °C
As of 9:53 AM on Monday 22 Dec 2014 (Local Time) from KPIH Reporting Station
Overcast Overcast  
Wind Chill: 28°   Ceiling: 900
Heat Index: 36°   Visibility: 10mi
Dew Point: 34°   Wind: 10mph
Humidity: 93%   Direction: 280°W
Pressure: 30"   Gusts: NA
Location:  43.08°N, 112.68°W
Report Text: KPIH 221653Z 28009KT 10SM OVC009 02/01 A3000 RMK AO2 SLP169 T00220011
Loading
Personal Weather Stations






























Interactive Weather Map New forecast layout! Learn more

10-Day Weather Forecast

Advertisements
Track Severe Weather on mobile